Twister+3bari — LZA2346 — position and weather

sailwx.info

Track history (hours):
 
Tides and Currents Weather Stations Pressure Air Temp Water Temp Dewpoint Dewpoint Depression Visibility Wind Speed Wind Dir Waves Ship Positions

Twister+3bari

Last reported at 2018-Jun-02 00:48 UTC. Time now 2018-Jun-18 13:13 UTC.
Position N 44°18' E 028°04'.
Warning: this ship's position is 16 days out of date.

Length 90 m; draft 2.4 m.

Type: Ship. MMSI: 207072346.

Date/timePositionNaut miles runAvg speedWind from/ knotsBaromVisibWave heightAir tempDewpointWater temp
2018-Jun-02 00:48N 44°18' E 028°04'2 5.1
2018-Jun-02 00:30N 44°16' E 028°05'3 5.1
2018-Jun-02 00:00N 44°16' E 028°09'2 5.0
2018-Jun-01 23:30N 44°16' E 028°12'3 5.1
2018-Jun-01 23:00N 44°15' E 028°16'3 5.2
2018-Jun-01 22:30N 44°15' E 028°19'2 4.9
2018-Jun-01 22:00N 44°14' E 028°22'3 5.1
2018-Jun-01 21:26N 44°11' E 028°24'7 4.5
2018-Jun-01 19:53N 44°06' E 028°31'2 4.8
2018-Jun-01 19:29N 44°06' E 028°33'2 4.9
2018-Jun-01 19:00N 44°06' E 028°37'0 1.0
2018-Jun-01 18:30N 44°06' E 028°37'0 0.8
2018-Jun-01 18:00N 44°06' E 028°38'0 0.0
2018-Jun-01 17:30N 44°06' E 028°38'0 0.4
2018-Jun-01 17:00N 44°06' E 028°38'1 2.7
2018-Jun-01 16:30N 44°07' E 028°39'0 0.0
2018-Jun-01 16:00N 44°07' E 028°39'0 0.0
2018-Jun-01 15:30N 44°07' E 028°39'0 0.1
2018-Jun-01 15:00N 44°07' E 028°39'0 0.0
2018-Jun-01 14:30N 44°07' E 028°39'0 0.0
2018-Jun-01 14:00N 44°07' E 028°39'0 0.0
2018-Jun-01 13:30N 44°07' E 028°39'0 0.0
2018-Jun-01 13:00N 44°07' E 028°39'0 0.0
2018-Jun-01 12:30N 44°07' E 028°39'0 0.0
2018-Jun-01 12:00N 44°07' E 028°39'1 2.2
2018-Jun-01 11:29N 44°08' E 028°39'1 2.5
2018-Jun-01 11:00N 44°10' E 028°39'0 0.0
2018-Jun-01 10:30N 44°10' E 028°39'0 0.0
2018-Jun-01 10:01N 44°10' E 028°39'0 0.0
2018-Jun-01 09:30N 44°10' E 028°39'0 0.0
2018-Jun-01 09:00N 44°10' E 028°39'0 0.0
2018-Jun-01 08:30N 44°10' E 028°39'0 0.0
2018-Jun-01 08:00N 44°10' E 028°39'0 0.0
2018-Jun-01 07:30N 44°10' E 028°39'0 0.0
2018-Jun-01 07:00N 44°10' E 028°39'0 0.0
2018-Jun-01 06:30N 44°10' E 028°39'0 0.0
2018-Jun-01 06:00N 44°10' E 028°39'0 0.0
2018-Jun-01 05:30N 44°10' E 028°39'0 0.0
2018-Jun-01 05:00N 44°10' E 028°39'0 0.0
2018-Jun-01 04:30N 44°10' E 028°39'0 0.0
2018-Jun-01 04:00N 44°10' E 028°39'0 0.0
2018-Jun-01 03:30N 44°10' E 028°39'0 0.0
2018-Jun-01 03:00N 44°10' E 028°39'0 0.0
2018-Jun-01 02:30N 44°10' E 028°39'0 0.0
2018-Jun-01 02:00N 44°10' E 028°39'0 0.0
2018-Jun-01 01:30N 44°10' E 028°39'0 0.0
2018-Jun-01 01:00N 44°10' E 028°39'0 0.0
2018-Jun-01 00:30N 44°10' E 028°39'0 0.0
2018-Jun-01 00:00N 44°10' E 028°39'0 0.0
2018-May-31 23:30N 44°10' E 028°39'0 0.0
2018-May-31 23:00N 44°10' E 028°39'0 0.0
2018-May-31 22:30N 44°10' E 028°39'0 0.0
2018-May-31 22:00N 44°10' E 028°39'0 0.0
2018-May-31 21:30N 44°10' E 028°39'0 0.0
2018-May-31 21:00N 44°10' E 028°39'0 0.0
2018-May-31 20:30N 44°10' E 028°39'0 0.0
2018-May-31 20:00N 44°10' E 028°39'0 0.0
2018-May-31 19:30N 44°10' E 028°39'0 0.0
2018-May-31 19:00N 44°10' E 028°39'0 0.0
2018-May-31 18:30N 44°10' E 028°39'0 0.0
2018-May-31 18:00N 44°10' E 028°39'0 0.0
2018-May-31 17:30N 44°10' E 028°39'0 0.0
2018-May-31 17:00N 44°10' E 028°39'0 0.0
2018-May-31 16:30N 44°10' E 028°39'0 0.0
2018-May-31 16:00N 44°10' E 028°39'0 0.0
2018-May-31 15:30N 44°10' E 028°39'0 0.0
2018-May-31 15:00N 44°10' E 028°39'0 0.0
2018-May-31 14:30N 44°10' E 028°39'0 0.0
2018-May-31 14:00N 44°10' E 028°39'0 0.0
2018-May-31 13:30N 44°10' E 028°39'0 0.0
2018-May-31 13:00N 44°10' E 028°39'0 0.0
2018-May-31 12:30N 44°10' E 028°39'0 0.0
2018-May-31 12:00N 44°10' E 028°39'0 0.0
2018-May-31 11:30N 44°10' E 028°39'0 0.0
2018-May-31 11:00N 44°10' E 028°39'0 0.0
2018-May-31 10:30N 44°10' E 028°39'0 0.0
2018-May-31 10:00N 44°10' E 028°39'0 0.1
2018-May-31 09:30N 44°10' E 028°39'0 0.0
2018-May-31 09:00N 44°10' E 028°39'0 0.0
2018-May-31 08:30N 44°10' E 028°39'0 0.0
2018-May-31 08:00N 44°10' E 028°39'0 0.0
2018-May-31 07:30N 44°10' E 028°39'0 0.0
2018-May-31 07:00N 44°10' E 028°39'0 0.0
2018-May-31 06:30N 44°10' E 028°39'0 0.2
2018-May-31 06:00N 44°10' E 028°39'0 0.0
2018-May-31 05:30N 44°10' E 028°39'0 0.0
2018-May-31 05:00N 44°10' E 028°39'0 0.2
2018-May-31 04:30N 44°10' E 028°39'0 0.1
2018-May-31 04:00N 44°10' E 028°39'0 0.1
2018-May-31 03:30N 44°09' E 028°39'0 0.0
2018-May-31 03:00N 44°09' E 028°39'0 0.2
2018-May-31 02:30N 44°10' E 028°39'0 0.0
2018-May-31 02:00N 44°10' E 028°39'0 0.0
2018-May-31 01:30N 44°10' E 028°39'0 0.0
2018-May-31 01:00N 44°10' E 028°39'0 0.0
2018-May-31 00:30N 44°10' E 028°39'0 0.0
2018-May-31 00:00N 44°10' E 028°39'0 0.0
2018-May-30 23:30N 44°10' E 028°39'0 0.0
2018-May-30 23:00N 44°10' E 028°39'0 0.0
2018-May-30 22:30N 44°10' E 028°39'0 0.0
2018-May-30 22:00N 44°10' E 028°39'0 0.0
2018-May-30 21:30N 44°10' E 028°39'0 0.0
2018-May-30 21:00N 44°10' E 028°39'0 0.0
2018-May-30 20:30N 44°10' E 028°39'0 0.0
2018-May-30 20:00N 44°10' E 028°39'0 0.0
2018-May-30 19:30N 44°10' E 028°39'0 0.0
2018-May-30 19:00N 44°10' E 028°39'0 0.0
2018-May-30 18:30N 44°10' E 028°39'0 0.0
2018-May-30 18:00N 44°10' E 028°39'0 0.0
2018-May-30 17:30N 44°10' E 028°39'0 0.0
2018-May-30 17:00N 44°10' E 028°39'0 0.0
2018-May-30 16:30N 44°10' E 028°39'0 0.0
2018-May-30 16:00N 44°10' E 028°39'0 0.0
2018-May-30 15:30N 44°10' E 028°39'0 0.0
2018-May-30 15:00N 44°10' E 028°39'0 0.0
2018-May-30 14:30N 44°10' E 028°39'0 0.0
2018-May-30 14:00N 44°10' E 028°39'0 0.0
2018-May-30 13:30N 44°10' E 028°39'0 0.0
2018-May-30 13:00N 44°10' E 028°39'0 0.0
2018-May-30 12:30N 44°10' E 028°39'0 0.0
2018-May-30 12:00N 44°10' E 028°39'0 0.0
2018-May-30 11:30N 44°10' E 028°39'0 0.0
2018-May-30 11:00N 44°10' E 028°39'0 0.0
2018-May-30 10:30N 44°10' E 028°39'0 0.0
2018-May-30 10:00N 44°10' E 028°39'0 0.0
2018-May-30 09:21N 44°10' E 028°39'0 0.0
2018-May-30 09:00N 44°10' E 028°39'0 0.0
2018-May-30 08:30N 44°10' E 028°39'  
Track history (hours):
 
Tides and Currents Weather Stations Pressure Air Temp Water Temp Dewpoint Dewpoint Depression Visibility Wind Speed Wind Dir Waves Ship Positions

Twister+3bari

Last reported at 2018-Jun-02 00:48 UTC. Time now 2018-Jun-18 13:13 UTC.
Position N 44°18' E 028°04'.
Warning: this ship's position is 16 days out of date.

Length 90 m; draft 2.4 m.

Type: Ship. MMSI: 207072346.

Date/timePositionNaut miles runAvg speedWind from/ knotsBaromVisibWave heightAir tempDewpointWater temp
2018-Jun-02 00:48N 44°18' E 028°04'2 5.1
2018-Jun-02 00:30N 44°16' E 028°05'3 5.1
2018-Jun-02 00:00N 44°16' E 028°09'2 5.0
2018-Jun-01 23:30N 44°16' E 028°12'3 5.1
2018-Jun-01 23:00N 44°15' E 028°16'3 5.2
2018-Jun-01 22:30N 44°15' E 028°19'2 4.9
2018-Jun-01 22:00N 44°14' E 028°22'3 5.1
2018-Jun-01 21:26N 44°11' E 028°24'7 4.5
2018-Jun-01 19:53N 44°06' E 028°31'2 4.8
2018-Jun-01 19:29N 44°06' E 028°33'2 4.9
2018-Jun-01 19:00N 44°06' E 028°37'0 1.0
2018-Jun-01 18:30N 44°06' E 028°37'0 0.8
2018-Jun-01 18:00N 44°06' E 028°38'0 0.0
2018-Jun-01 17:30N 44°06' E 028°38'0 0.4
2018-Jun-01 17:00N 44°06' E 028°38'1 2.7
2018-Jun-01 16:30N 44°07' E 028°39'0 0.0
2018-Jun-01 16:00N 44°07' E 028°39'0 0.0
2018-Jun-01 15:30N 44°07' E 028°39'0 0.1
2018-Jun-01 15:00N 44°07' E 028°39'0 0.0
2018-Jun-01 14:30N 44°07' E 028°39'0 0.0
2018-Jun-01 14:00N 44°07' E 028°39'0 0.0
2018-Jun-01 13:30N 44°07' E 028°39'0 0.0
2018-Jun-01 13:00N 44°07' E 028°39'0 0.0
2018-Jun-01 12:30N 44°07' E 028°39'0 0.0
2018-Jun-01 12:00N 44°07' E 028°39'1 2.2
2018-Jun-01 11:29N 44°08' E 028°39'1 2.5
2018-Jun-01 11:00N 44°10' E 028°39'0 0.0
2018-Jun-01 10:30N 44°10' E 028°39'0 0.0
2018-Jun-01 10:01N 44°10' E 028°39'0 0.0
2018-Jun-01 09:30N 44°10' E 028°39'0 0.0
2018-Jun-01 09:00N 44°10' E 028°39'0 0.0
2018-Jun-01 08:30N 44°10' E 028°39'0 0.0
2018-Jun-01 08:00N 44°10' E 028°39'0 0.0
2018-Jun-01 07:30N 44°10' E 028°39'0 0.0
2018-Jun-01 07:00N 44°10' E 028°39'0 0.0
2018-Jun-01 06:30N 44°10' E 028°39'0 0.0
2018-Jun-01 06:00N 44°10' E 028°39'0 0.0
2018-Jun-01 05:30N 44°10' E 028°39'0 0.0
2018-Jun-01 05:00N 44°10' E 028°39'0 0.0
2018-Jun-01 04:30N 44°10' E 028°39'0 0.0
2018-Jun-01 04:00N 44°10' E 028°39'0 0.0
2018-Jun-01 03:30N 44°10' E 028°39'0 0.0
2018-Jun-01 03:00N 44°10' E 028°39'0 0.0
2018-Jun-01 02:30N 44°10' E 028°39'0 0.0
2018-Jun-01 02:00N 44°10' E 028°39'0 0.0
2018-Jun-01 01:30N 44°10' E 028°39'0 0.0
2018-Jun-01 01:00N 44°10' E 028°39'0 0.0
2018-Jun-01 00:30N 44°10' E 028°39'0 0.0
2018-Jun-01 00:00N 44°10' E 028°39'0 0.0
2018-May-31 23:30N 44°10' E 028°39'0 0.0
2018-May-31 23:00N 44°10' E 028°39'0 0.0
2018-May-31 22:30N 44°10' E 028°39'0 0.0
2018-May-31 22:00N 44°10' E 028°39'0 0.0
2018-May-31 21:30N 44°10' E 028°39'0 0.0
2018-May-31 21:00N 44°10' E 028°39'0 0.0
2018-May-31 20:30N 44°10' E 028°39'0 0.0
2018-May-31 20:00N 44°10' E 028°39'0 0.0
2018-May-31 19:30N 44°10' E 028°39'0 0.0
2018-May-31 19:00N 44°10' E 028°39'0 0.0
2018-May-31 18:30N 44°10' E 028°39'0 0.0
2018-May-31 18:00N 44°10' E 028°39'0 0.0
2018-May-31 17:30N 44°10' E 028°39'0 0.0
2018-May-31 17:00N 44°10' E 028°39'0 0.0
2018-May-31 16:30N 44°10' E 028°39'0 0.0
2018-May-31 16:00N 44°10' E 028°39'0 0.0
2018-May-31 15:30N 44°10' E 028°39'0 0.0
2018-May-31 15:00N 44°10' E 028°39'0 0.0
2018-May-31 14:30N 44°10' E 028°39'0 0.0
2018-May-31 14:00N 44°10' E 028°39'0 0.0
2018-May-31 13:30N 44°10' E 028°39'0 0.0
2018-May-31 13:00N 44°10' E 028°39'0 0.0
2018-May-31 12:30N 44°10' E 028°39'0 0.0
2018-May-31 12:00N 44°10' E 028°39'0 0.0
2018-May-31 11:30N 44°10' E 028°39'0 0.0
2018-May-31 11:00N 44°10' E 028°39'0 0.0
2018-May-31 10:30N 44°10' E 028°39'0 0.0
2018-May-31 10:00N 44°10' E 028°39'0 0.1
2018-May-31 09:30N 44°10' E 028°39'0 0.0
2018-May-31 09:00N 44°10' E 028°39'0 0.0
2018-May-31 08:30N 44°10' E 028°39'0 0.0
2018-May-31 08:00N 44°10' E 028°39'0 0.0
2018-May-31 07:30N 44°10' E 028°39'0 0.0
2018-May-31 07:00N 44°10' E 028°39'0 0.0
2018-May-31 06:30N 44°10' E 028°39'0 0.2
2018-May-31 06:00N 44°10' E 028°39'0 0.0
2018-May-31 05:30N 44°10' E 028°39'0 0.0
2018-May-31 05:00N 44°10' E 028°39'0 0.2
2018-May-31 04:30N 44°10' E 028°39'0 0.1
2018-May-31 04:00N 44°10' E 028°39'0 0.1
2018-May-31 03:30N 44°09' E 028°39'0 0.0
2018-May-31 03:00N 44°09' E 028°39'0 0.2
2018-May-31 02:30N 44°10' E 028°39'0 0.0
2018-May-31 02:00N 44°10' E 028°39'0 0.0
2018-May-31 01:30N 44°10' E 028°39'0 0.0
2018-May-31 01:00N 44°10' E 028°39'0 0.0
2018-May-31 00:30N 44°10' E 028°39'0 0.0
2018-May-31 00:00N 44°10' E 028°39'0 0.0
2018-May-30 23:30N 44°10' E 028°39'0 0.0
2018-May-30 23:00N 44°10' E 028°39'0 0.0
2018-May-30 22:30N 44°10' E 028°39'0 0.0
2018-May-30 22:00N 44°10' E 028°39'0 0.0
2018-May-30 21:30N 44°10' E 028°39'0 0.0
2018-May-30 21:00N 44°10' E 028°39'0 0.0
2018-May-30 20:30N 44°10' E 028°39'0 0.0
2018-May-30 20:00N 44°10' E 028°39'0 0.0
2018-May-30 19:30N 44°10' E 028°39'0 0.0
2018-May-30 19:00N 44°10' E 028°39'0 0.0
2018-May-30 18:30N 44°10' E 028°39'0 0.0
2018-May-30 18:00N 44°10' E 028°39'0 0.0
2018-May-30 17:30N 44°10' E 028°39'0 0.0
2018-May-30 17:00N 44°10' E 028°39'0 0.0
2018-May-30 16:30N 44°10' E 028°39'0 0.0
2018-May-30 16:00N 44°10' E 028°39'0 0.0
2018-May-30 15:30N 44°10' E 028°39'0 0.0
2018-May-30 15:00N 44°10' E 028°39'0 0.0
2018-May-30 14:30N 44°10' E 028°39'0 0.0
2018-May-30 14:00N 44°10' E 028°39'0 0.0
2018-May-30 13:30N 44°10' E 028°39'0 0.0
2018-May-30 13:00N 44°10' E 028°39'0 0.0
2018-May-30 12:30N 44°10' E 028°39'0 0.0
2018-May-30 12:00N 44°10' E 028°39'0 0.0
2018-May-30 11:30N 44°10' E 028°39'0 0.0
2018-May-30 11:00N 44°10' E 028°39'0 0.0
2018-May-30 10:30N 44°10' E 028°39'0 0.0
2018-May-30 10:00N 44°10' E 028°39'0 0.0
2018-May-30 09:21N 44°10' E 028°39'0 0.0
2018-May-30 09:00N 44°10' E 028°39'0 0.0
2018-May-30 08:30N 44°10' E 028°39'  

Dump ship's entire track history